Time;durP1;ratioP1;P1;durP2;ratioP2;P2;SDS_P1;SDS_P2;PMS_P1;PMS_P2;Temp;Humidity;BMP_temperature;BMP_pressure;BME280_temperature;BME280_humidity;BME280_pressure;Samples;Min_cycle;Max_cycle;Signal;HPM_P1;HPM_P2
2021/04/01 00:02:28;;;;;;;79.27;35.30;;;10.10;99.90;;;;;;4426744;28;658410;-84
2021/04/01 00:05:16;;;;;;;70.67;35.10;;;10.10;99.90;;;;;;4391649;28;658791;-84
2021/04/01 00:08:03;;;;;;;69.13;32.63;;;10.10;99.90;;;;;;4406665;28;658977;-84
2021/04/01 00:10:50;;;;;;;75.33;30.83;;;10.10;99.90;;;;;;4436410;28;659938;-84
2021/04/01 00:13:37;;;;;;;64.53;28.10;;;10.10;99.90;;;;;;4429155;28;658474;-84
2021/04/01 00:16:24;;;;;;;62.70;29.17;;;10.00;99.90;;;;;;4421173;28;658763;-84
2021/04/01 00:19:12;;;;;;;71.97;31.87;;;10.00;99.90;;;;;;4440099;28;658809;-84
2021/04/01 00:21:59;;;;;;;60.97;27.70;;;10.00;99.90;;;;;;4412329;28;659174;-84
2021/04/01 00:24:46;;;;;;;61.37;27.67;;;10.00;99.90;;;;;;4432224;28;658550;-84
2021/04/01 00:27:33;;;;;;;58.90;26.57;;;9.90;99.90;;;;;;4406364;28;659031;-84
2021/04/01 00:30:21;;;;;;;56.23;26.10;;;9.90;99.90;;;;;;4438933;28;658274;-84
2021/04/01 00:33:08;;;;;;;55.33;27.50;;;9.90;99.90;;;;;;4404069;28;657783;-84
2021/04/01 00:35:56;;;;;;;60.22;26.50;;;9.90;99.90;;;;;;4433180;28;658409;-84
2021/04/01 00:38:43;;;;;;;58.40;26.73;;;9.80;99.90;;;;;;4411257;28;657839;-84
2021/04/01 00:41:33;;;;;;;57.57;27.73;;;9.80;99.90;;;;;;4433651;28;657468;-84
2021/04/01 00:44:20;;;;;;;60.13;27.73;;;9.80;99.90;;;;;;4404194;28;658611;-84
2021/04/01 00:47:08;;;;;;;62.33;26.80;;;9.80;99.90;;;;;;4420167;28;657961;-84
2021/04/01 00:49:55;;;;;;;54.73;28.10;;;9.70;99.90;;;;;;4447697;28;657996;-84
2021/04/01 00:52:43;;;;;;;57.87;26.50;;;9.80;99.90;;;;;;4415503;28;658068;-84
2021/04/01 00:55:30;;;;;;;57.00;25.77;;;9.70;99.90;;;;;;4438527;28;658205;-84
2021/04/01 00:58:17;;;;;;;61.07;27.33;;;9.70;99.90;;;;;;4407345;28;657456;-85
2021/04/01 01:01:20;;;;;;;56.53;24.70;;;9.70;99.90;;;;;;4429536;28;657346;-85
2021/04/01 01:04:09;;;;;;;44.83;22.93;;;9.60;99.90;;;;;;4407834;28;657925;-84
2021/04/01 01:06:56;;;;;;;45.93;22.97;;;9.60;99.90;;;;;;4434783;28;657386;-84
2021/04/01 01:09:44;;;;;;;53.65;23.10;;;9.60;99.90;;;;;;4402829;28;657956;-84
2021/04/01 01:12:31;;;;;;;48.17;21.97;;;9.60;99.90;;;;;;4421252;28;657796;-84
2021/04/01 01:15:18;;;;;;;49.20;23.53;;;9.50;99.90;;;;;;4419861;28;657637;-84
2021/04/01 01:18:05;;;;;;;52.73;21.50;;;9.50;99.90;;;;;;4383566;28;657553;-84
2021/04/01 01:20:52;;;;;;;48.73;21.63;;;9.40;99.90;;;;;;4400000;28;657698;-84
2021/04/01 01:23:41;;;;;;;52.00;22.57;;;9.40;99.90;;;;;;4421384;28;657652;-84
2021/04/01 01:26:29;;;;;;;45.60;20.07;;;9.40;99.90;;;;;;4422885;28;657492;-85
2021/04/01 01:29:16;;;;;;;45.37;20.17;;;9.40;99.90;;;;;;4415942;28;658777;-84
2021/04/01 01:32:03;;;;;;;47.37;20.17;;;9.40;99.90;;;;;;4390855;28;657796;-85
2021/04/01 01:34:50;;;;;;;43.73;18.77;;;9.30;99.90;;;;;;4439820;28;657305;-84
2021/04/01 01:37:50;;;;;;;39.77;16.67;;;9.30;99.90;;;;;;4415148;28;657108;-84
2021/04/01 01:40:38;;;;;;;33.87;15.60;;;9.20;99.90;;;;;;4390535;28;657585;-84
2021/04/01 01:43:25;;;;;;;39.03;16.27;;;9.20;99.90;;;;;;4432342;28;658215;-85
2021/04/01 01:46:12;;;;;;;37.93;15.53;;;9.30;99.90;;;;;;4423415;28;657604;-84
2021/04/01 01:49:00;;;;;;;38.77;16.40;;;9.30;99.90;;;;;;4427389;28;658880;-85
2021/04/01 01:51:47;;;;;;;36.40;15.97;;;9.20;99.90;;;;;;4416037;28;657760;-85
2021/04/01 01:54:37;;;;;;;35.23;16.03;;;9.20;99.90;;;;;;4438988;28;657660;-84
2021/04/01 01:57:24;;;;;;;34.67;15.90;;;9.20;99.90;;;;;;4407475;28;658447;-84
2021/04/01 02:00:14;;;;;;;36.00;17.40;;;9.20;99.90;;;;;;4424492;28;657151;-84
2021/04/01 02:03:04;;;;;;;32.10;15.77;;;9.20;99.90;;;;;;4417149;28;657630;-84
2021/04/01 02:05:51;;;;;;;33.20;15.23;;;9.20;99.90;;;;;;4399762;28;658282;-84
2021/04/01 02:08:38;;;;;;;31.50;15.50;;;9.20;99.90;;;;;;4402774;28;658379;-84
2021/04/01 02:11:25;;;;;;;39.23;15.00;;;9.10;99.90;;;;;;4420440;28;658544;-84
2021/04/01 02:14:12;;;;;;;28.73;13.93;;;9.10;99.90;;;;;;4429951;28;657598;-84
2021/04/01 02:17:00;;;;;;;32.03;13.77;;;9.10;99.90;;;;;;4423746;28;658136;-84
2021/04/01 02:19:47;;;;;;;30.85;14.82;;;9.10;99.90;;;;;;4418815;28;657526;-84
2021/04/01 02:22:34;;;;;;;31.90;15.27;;;9.00;99.90;;;;;;4422851;28;658039;-84
2021/04/01 02:25:24;;;;;;;32.67;15.80;;;9.00;99.90;;;;;;4429061;28;657472;-84
2021/04/01 02:28:11;;;;;;;35.20;15.20;;;9.00;99.90;;;;;;4399325;28;657493;-85
2021/04/01 02:30:59;;;;;;;28.10;14.97;;;9.00;99.90;;;;;;4405819;28;657504;-85
2021/04/01 02:33:47;;;;;;;36.63;15.00;;;9.00;99.90;;;;;;4428404;28;657450;-85
2021/04/01 02:36:34;;;;;;;26.33;14.03;;;9.00;99.90;;;;;;4395702;28;658309;-84
2021/04/01 02:39:22;;;;;;;32.30;15.57;;;9.00;99.90;;;;;;4421990;28;657682;-84
2021/04/01 02:42:09;;;;;;;33.33;15.47;;;8.90;99.90;;;;;;4402546;28;657917;-84
2021/04/01 02:44:56;;;;;;;33.77;15.83;;;8.90;99.90;;;;;;4423437;28;657042;-84
2021/04/01 02:47:43;;;;;;;35.97;16.40;;;8.80;99.90;;;;;;4401848;28;657561;-85
2021/04/01 02:50:31;;;;;;;34.77;15.87;;;8.80;99.90;;;;;;4436505;28;657978;-84
2021/04/01 02:53:18;;;;;;;29.33;15.77;;;8.80;99.90;;;;;;4398802;28;657780;-84
2021/04/01 02:56:05;;;;;;;38.00;15.97;;;8.80;99.90;;;;;;4392597;28;657857;-84
2021/04/01 02:58:52;;;;;;;36.13;15.77;;;8.70;99.90;;;;;;4411599;28;657931;-84
2021/04/01 03:01:39;;;;;;;31.63;14.35;;;8.80;99.90;;;;;;4422785;28;657780;-84
2021/04/01 03:04:27;;;;;;;34.30;15.30;;;8.80;99.90;;;;;;4431933;28;657287;-84
2021/04/01 03:07:15;;;;;;;32.20;15.83;;;8.70;99.90;;;;;;4399274;28;657725;-85
2021/04/01 03:10:02;;;;;;;37.37;16.00;;;8.70;99.90;;;;;;4417716;28;657243;-84
2021/04/01 03:12:49;;;;;;;32.50;15.83;;;8.70;99.90;;;;;;4402201;28;657910;-84
2021/04/01 03:15:36;;;;;;;42.27;15.93;;;8.70;99.90;;;;;;4428300;28;657571;-84
2021/04/01 03:18:23;;;;;;;33.63;14.67;;;8.60;99.90;;;;;;4390387;28;657891;-84
2021/04/01 03:21:10;;;;;;;36.07;16.43;;;8.60;99.90;;;;;;4413097;28;658583;-84
2021/04/01 03:23:58;;;;;;;29.03;14.63;;;8.60;99.90;;;;;;4410858;28;657968;-84
2021/04/01 03:26:45;;;;;;;37.60;15.63;;;8.60;99.90;;;;;;4423030;28;657619;-84
2021/04/01 03:29:33;;;;;;;38.72;16.20;;;8.60;99.90;;;;;;4402502;28;657375;-84
2021/04/01 03:32:19;;;;;;;36.50;15.90;;;8.50;99.90;;;;;;4423473;28;657800;-84
2021/04/01 03:35:08;;;;;;;34.70;17.93;;;8.50;99.90;;;;;;4412033;28;657326;-84
2021/04/01 03:37:57;;;;;;;30.80;15.23;;;8.50;99.90;;;;;;4396640;28;658077;-84
2021/04/01 03:40:45;;;;;;;34.57;17.50;;;8.50;99.90;;;;;;4400072;28;657653;-85
2021/04/01 03:43:33;;;;;;;38.47;18.70;;;8.60;99.90;;;;;;4421091;28;657163;-84
2021/04/01 03:46:20;;;;;;;35.67;19.63;;;8.60;99.90;;;;;;4424383;28;657745;-84
2021/04/01 03:49:07;;;;;;;43.87;19.50;;;8.60;99.90;;;;;;4419301;28;656831;-84
2021/04/01 03:51:54;;;;;;;37.47;20.60;;;8.60;99.90;;;;;;4401601;28;657930;-84
2021/04/01 03:54:42;;;;;;;36.47;17.77;;;8.70;99.90;;;;;;4419505;28;658480;-84
2021/04/01 03:57:30;;;;;;;44.77;20.83;;;8.80;99.90;;;;;;4396701;28;658145;-84
2021/04/01 04:00:20;;;;;;;33.20;18.20;;;8.90;99.90;;;;;;4395896;28;657702;-84
2021/04/01 04:03:17;;;;;;;40.15;20.30;;;8.90;99.90;;;;;;4397856;28;657940;-84
2021/04/01 04:06:12;;;;;;;40.27;18.80;;;9.00;99.90;;;;;;4390483;28;657892;-84
2021/04/01 04:09:10;;;;;;;53.10;26.20;;;9.00;99.90;;;;;;4396584;28;657806;-84
2021/04/01 04:12:06;;;;;;;46.90;25.93;;;9.00;99.90;;;;;;4410591;28;657839;-84
2021/04/01 04:15:03;;;;;;;36.67;19.50;;;9.10;99.90;;;;;;4384753;28;657849;-84
2021/04/01 04:17:50;;;;;;;40.70;20.67;;;9.10;99.90;;;;;;4395081;28;658018;-84
2021/04/01 04:20:38;;;;;;;39.50;20.17;;;9.20;99.90;;;;;;4398262;28;657824;-84
2021/04/01 04:23:25;;;;;;;32.70;17.27;;;9.20;99.90;;;;;;4415642;28;658261;-84
2021/04/01 04:26:12;;;;;;;38.33;19.47;;;9.30;99.90;;;;;;4416765;28;657533;-84
2021/04/01 04:28:59;;;;;;;35.35;18.63;;;9.40;99.90;;;;;;4418204;28;657798;-84
2021/04/01 04:31:47;;;;;;;45.63;18.92;;;9.50;99.90;;;;;;4425908;28;657555;-85
2021/04/01 04:34:34;;;;;;;38.97;19.63;;;9.50;99.90;;;;;;4393047;28;657958;-84
2021/04/01 04:37:21;;;;;;;39.23;18.20;;;9.50;99.90;;;;;;4414014;28;657139;-85
2021/04/01 04:40:09;;;;;;;38.92;18.92;;;9.50;99.90;;;;;;4399872;28;658266;-85
2021/04/01 04:42:56;;;;;;;42.63;19.70;;;9.50;99.90;;;;;;4414297;28;657284;-86
2021/04/01 04:45:43;;;;;;;41.50;19.67;;;9.50;99.90;;;;;;4395516;28;657593;-85
2021/04/01 04:48:31;;;;;;;40.20;20.73;;;9.60;99.90;;;;;;4425797;28;657668;-85
2021/04/01 04:51:18;;;;;;;46.37;22.27;;;9.70;99.90;;;;;;4401040;28;657298;-85
2021/04/01 04:54:05;;;;;;;44.80;19.97;;;9.70;99.90;;;;;;4420487;28;658040;-85
2021/04/01 04:56:52;;;;;;;38.50;19.87;;;9.80;99.90;;;;;;4408229;28;658109;-85
2021/04/01 04:59:44;;;;;;;36.30;18.13;;;9.90;99.90;;;;;;4403837;28;657899;-85
2021/04/01 05:05:38;;;;;;;40.47;20.40;;;9.90;99.90;;;;;;4388772;28;657734;-85
2021/04/01 05:08:26;;;;;;;38.57;19.73;;;10.00;99.90;;;;;;4422565;28;658063;-85
2021/04/01 05:11:13;;;;;;;36.20;17.77;;;10.10;99.90;;;;;;4388957;28;659078;-85
2021/04/01 05:14:00;;;;;;;47.93;20.07;;;10.10;99.90;;;;;;4417263;28;659107;-85
2021/04/01 05:16:47;;;;;;;37.03;18.40;;;10.20;99.90;;;;;;4415737;28;658541;-85
2021/04/01 05:19:35;;;;;;;37.10;18.10;;;10.40;99.90;;;;;;4420637;28;658604;-85
2021/04/01 05:22:30;;;;;;;36.47;18.57;;;10.60;99.90;;;;;;4398924;28;658970;-85
2021/04/01 05:25:18;;;;;;;34.93;16.50;;;10.80;99.90;;;;;;4368590;28;658994;-85
2021/04/01 05:28:09;;;;;;;37.17;18.03;;;11.00;99.90;;;;;;4423048;28;659139;-85
2021/04/01 05:30:57;;;;;;;34.80;17.63;;;11.20;99.90;;;;;;4402781;28;658543;-85
2021/04/01 05:33:44;;;;;;;28.30;14.03;;;11.40;99.90;;;;;;4395470;28;659201;-84
2021/04/01 05:36:34;;;;;;;34.43;12.83;;;11.60;99.90;;;;;;4426020;28;658564;-85
2021/04/01 05:39:26;;;;;;;29.37;16.97;;;12.00;99.90;;;;;;4398815;28;659036;-86
2021/04/01 05:42:15;;;;;;;34.27;15.30;;;12.20;99.90;;;;;;4397177;28;658480;-84
2021/04/01 05:45:08;;;;;;;30.87;15.23;;;12.40;99.90;;;;;;4398435;28;658896;-85
2021/04/01 05:47:59;;;;;;;30.87;16.23;;;12.60;99.90;;;;;;4390321;28;659114;-84
2021/04/01 05:51:10;;;;;;;26.93;13.73;;;12.70;99.90;;;;;;4396744;28;658671;-84
2021/04/01 05:57:30;;;;;;;27.03;14.50;;;13.00;99.90;;;;;;4344187;28;659174;-85
2021/04/01 06:03:37;;;;;;;29.90;15.93;;;13.30;99.90;;;;;;4340809;28;659021;-85
2021/04/01 06:06:29;;;;;;;28.03;14.77;;;13.40;99.90;;;;;;4356834;28;658495;-85
2021/04/01 06:09:20;;;;;;;27.30;14.13;;;13.60;99.90;;;;;;4364170;28;658805;-85
2021/04/01 06:12:09;;;;;;;28.10;13.90;;;13.60;99.90;;;;;;4359005;28;658609;-85
2021/04/01 06:14:58;;;;;;;24.97;13.70;;;13.70;99.90;;;;;;4405969;28;658350;-85
2021/04/01 06:17:47;;;;;;;27.87;14.17;;;13.80;99.90;;;;;;4368175;28;659475;-85
2021/04/01 06:20:34;;;;;;;23.43;11.90;;;14.00;99.90;;;;;;4379171;28;658787;-85
2021/04/01 06:23:27;;;;;;;33.07;13.80;;;14.20;99.90;;;;;;4398219;28;658369;-85
2021/04/01 06:26:18;;;;;;;26.93;12.87;;;14.30;99.90;;;;;;4382938;28;658630;-85
2021/04/01 06:29:06;;;;;;;24.67;12.40;;;14.30;99.90;;;;;;4378945;28;659315;-85
2021/04/01 06:31:54;;;;;;;27.07;12.43;;;14.50;99.90;;;;;;4383174;28;658423;-85
2021/04/01 06:34:42;;;;;;;27.88;12.95;;;14.60;99.90;;;;;;4401069;28;658001;-83
2021/04/01 06:37:40;;;;;;;25.15;12.48;;;14.70;99.90;;;;;;4378306;28;659181;-85
2021/04/01 06:40:27;;;;;;;23.90;11.53;;;14.80;99.90;;;;;;4412924;28;659135;-85
2021/04/01 06:43:35;;;;;;;23.03;9.20;;;14.80;99.90;;;;;;4431902;28;658330;-84
2021/04/01 06:46:25;;;;;;;21.27;10.40;;;14.90;99.90;;;;;;4432811;28;657455;-86
2021/04/01 06:52:20;;;;;;;28.17;11.17;;;15.10;99.90;;;;;;4428525;28;658510;-87
2021/04/01 06:55:19;;;;;;;29.17;11.97;;;15.20;99.90;;;;;;4405262;28;658805;-87
2021/04/01 06:58:16;;;;;;;26.40;11.97;;;15.30;99.90;;;;;;4420981;28;659022;-86
2021/04/01 07:01:06;;;;;;;24.63;11.47;;;15.40;99.90;;;;;;4425604;28;659106;-86
2021/04/01 07:03:57;;;;;;;25.77;11.97;;;15.50;99.90;;;;;;4405617;28;659209;-86
2021/04/01 07:06:46;;;;;;;28.27;11.80;;;15.50;99.90;;;;;;4411096;28;659210;-86
2021/04/01 07:09:40;;;;;;;24.93;11.37;;;15.40;99.90;;;;;;4401943;28;658914;-85
2021/04/01 07:12:29;;;;;;;26.33;11.97;;;15.40;99.90;;;;;;4402296;28;659256;-86
2021/04/01 07:15:20;;;;;;;23.90;11.67;;;15.50;99.90;;;;;;4446233;28;658613;-86
2021/04/01 07:18:14;;;;;;;20.37;11.27;;;15.60;99.90;;;;;;4379391;28;658578;-86
2021/04/01 07:21:29;;;;;;;21.97;10.73;;;15.70;99.90;;;;;;4408617;28;658637;-86
2021/04/01 07:30:52;;;;;;;22.33;9.63;;;16.20;99.90;;;;;;4418427;28;658328;-86
2021/04/01 07:46:30;;;;;;;19.73;10.17;;;16.70;99.90;;;;;;4294171;29;658430;-84
2021/04/01 07:49:21;;;;;;;19.70;10.73;;;16.80;99.90;;;;;;4281596;28;658671;-86
2021/04/01 07:52:10;;;;;;;20.17;11.17;;;16.90;99.90;;;;;;4292355;29;658623;-85
2021/04/01 07:55:08;;;;;;;21.57;10.73;;;17.00;99.90;;;;;;4298234;29;658895;-87
2021/04/01 07:58:25;;;;;;;22.00;10.47;;;17.20;99.90;;;;;;4289847;29;658745;-86
2021/04/01 08:01:19;;;;;;;20.53;10.97;;;17.50;99.90;;;;;;4280606;29;658533;-86
2021/04/01 08:04:09;;;;;;;18.10;9.80;;;17.70;99.90;;;;;;4283319;29;658515;-86
2021/04/01 08:07:09;;;;;;;18.03;10.23;;;18.00;99.90;;;;;;4291237;29;657834;-85
2021/04/01 08:10:00;;;;;;;22.23;11.00;;;18.10;99.90;;;;;;4290273;29;658804;-86
2021/04/01 08:12:49;;;;;;;20.90;10.33;;;18.10;99.90;;;;;;4273565;29;658450;-85
2021/04/01 08:15:39;;;;;;;21.00;10.20;;;18.20;99.90;;;;;;4340673;28;658464;-84
2021/04/01 08:18:28;;;;;;;22.00;10.17;;;18.40;99.90;;;;;;4317231;28;658410;-83
2021/04/01 08:21:15;;;;;;;24.40;10.77;;;18.60;99.90;;;;;;4394811;28;658752;-84
2021/04/01 08:24:06;;;;;;;20.97;10.53;;;18.70;99.90;;;;;;4403261;28;658504;-84
2021/04/01 08:27:04;;;;;;;24.90;10.53;;;18.80;99.90;;;;;;4389235;28;658572;-85
2021/04/01 08:36:01;;;;;;;25.53;11.93;;;19.40;99.90;;;;;;4377047;28;659023;-84
2021/04/01 08:38:48;;;;;;;30.97;11.30;;;19.60;99.50;;;;;;4393132;28;658623;-85
2021/04/01 08:42:08;;;;;;;22.60;11.40;;;19.60;99.50;;;;;;4419115;28;659275;-84
2021/04/01 08:45:23;;;;;;;25.23;10.93;;;19.90;97.40;;;;;;4387632;28;658732;-85
2021/04/01 08:48:36;;;;;;;26.20;11.40;;;19.90;96.60;;;;;;4391196;28;659243;-85
2021/04/01 08:51:43;;;;;;;24.30;10.80;;;19.90;93.90;;;;;;4320630;28;659235;-84
2021/04/01 08:54:31;;;;;;;22.57;11.13;;;20.10;94.10;;;;;;4329839;28;659399;-85
2021/04/01 08:57:23;;;;;;;30.00;12.53;;;20.20;92.40;;;;;;4328082;28;658769;-84
2021/04/01 09:00:11;;;;;;;25.50;12.03;;;20.10;92.90;;;;;;4335908;28;659419;-85
2021/04/01 09:02:58;;;;;;;26.60;11.73;;;20.10;91.80;;;;;;4332221;28;658603;-85
2021/04/01 09:05:52;;;;;;;26.70;11.27;;;20.40;92.00;;;;;;4355662;28;659311;-84
2021/04/01 09:08:43;;;;;;;23.43;9.40;;;20.50;90.10;;;;;;4339141;28;658812;-85
2021/04/01 09:11:35;;;;;;;28.30;11.03;;;20.50;90.20;;;;;;4348412;28;657841;-85
2021/04/01 09:14:26;;;;;;;21.70;10.43;;;20.80;90.40;;;;;;4343907;28;658899;-86
2021/04/01 09:17:15;;;;;;;20.70;9.67;;;21.00;87.30;;;;;;4327165;28;658572;-85
2021/04/01 09:20:11;;;;;;;24.17;9.70;;;21.30;87.90;;;;;;4343151;28;657892;-84
2021/04/01 09:23:00;;;;;;;20.77;9.40;;;21.60;83.10;;;;;;4352566;28;657582;-86
2021/04/01 09:25:49;;;;;;;21.30;8.80;;;21.80;82.40;;;;;;4361895;28;657617;-85
2021/04/01 09:28:38;;;;;;;23.00;9.05;;;21.80;79.80;;;;;;4367292;28;657811;-85
2021/04/01 09:31:32;;;;;;;19.90;8.60;;;21.60;78.90;;;;;;4367889;28;658482;-85
2021/04/01 09:34:20;;;;;;;17.80;8.67;;;21.70;77.40;;;;;;4387654;28;657745;-86
2021/04/01 09:37:11;;;;;;;19.27;8.77;;;21.60;76.30;;;;;;4429676;28;657803;-86
2021/04/01 09:40:07;;;;;;;23.33;9.10;;;21.60;75.80;;;;;;4403784;28;658144;-85
2021/04/01 09:42:54;;;;;;;19.73;9.10;;;22.10;76.80;;;;;;4421049;28;657676;-85
2021/04/01 09:45:41;;;;;;;25.40;9.37;;;22.40;71.10;;;;;;4402002;28;657650;-84
2021/04/01 09:48:30;;;;;;;19.87;8.40;;;22.60;71.40;;;;;;4427673;28;658004;-85
2021/04/01 09:51:19;;;;;;;19.17;9.50;;;22.90;70.30;;;;;;4404130;28;657660;-86
2021/04/01 09:54:06;;;;;;;23.90;9.77;;;22.90;70.10;;;;;;4431226;28;659116;-84
2021/04/01 09:56:56;;;;;;;23.73;9.83;;;23.00;70.40;;;;;;4394238;28;657258;-84
2021/04/01 09:59:47;;;;;;;25.57;9.83;;;23.10;67.30;;;;;;4382293;28;657420;-85
2021/04/01 10:02:35;;;;;;;24.50;10.97;;;23.50;65.00;;;;;;4410377;28;657903;-83
2021/04/01 10:05:24;;;;;;;28.02;10.45;;;23.80;62.00;;;;;;4403836;28;659026;-85
2021/04/01 10:08:12;;;;;;;22.83;10.40;;;24.10;62.20;;;;;;4423343;28;658685;-84
2021/04/01 10:11:00;;;;;;;24.73;9.83;;;24.10;61.70;;;;;;4404515;28;659335;-84
2021/04/01 10:13:48;;;;;;;20.98;10.52;;;23.80;59.50;;;;;;4397400;28;658218;-85
2021/04/01 10:16:36;;;;;;;19.03;9.60;;;23.40;58.70;;;;;;4418980;28;659351;-84
2021/04/01 10:19:25;;;;;;;24.50;10.10;;;23.00;59.80;;;;;;4406180;28;657452;-85
2021/04/01 10:22:21;;;;;;;20.87;9.63;;;22.80;61.70;;;;;;4389332;28;658641;-85
2021/04/01 10:25:15;;;;;;;21.33;8.87;;;22.80;59.40;;;;;;4398949;28;657990;-84
2021/04/01 10:28:06;;;;;;;19.67;10.17;;;22.80;61.70;;;;;;4393982;28;658026;-85
2021/04/01 10:30:54;;;;;;;24.27;10.03;;;22.70;58.50;;;;;;4404136;28;658478;-84
2021/04/01 10:33:53;;;;;;;20.60;9.20;;;22.40;58.70;;;;;;4420580;28;659491;-84
2021/04/01 10:36:42;;;;;;;22.70;9.77;;;22.50;59.40;;;;;;4383350;28;657964;-85
2021/04/01 10:39:36;;;;;;;22.77;10.10;;;22.60;58.10;;;;;;4407467;28;657702;-86
2021/04/01 10:42:26;;;;;;;22.60;10.37;;;22.50;57.60;;;;;;4399263;28;658664;-84
2021/04/01 10:45:17;;;;;;;23.47;10.30;;;22.80;56.20;;;;;;4407473;28;659148;-83
2021/04/01 10:48:23;;;;;;;23.30;11.37;;;23.30;54.90;;;;;;4398000;28;659320;-84
2021/04/01 10:51:11;;;;;;;22.87;10.67;;;23.00;55.20;;;;;;4407169;28;659098;-84
2021/04/01 10:54:00;;;;;;;26.63;11.40;;;23.10;55.80;;;;;;4399556;28;658626;-85
2021/04/01 10:56:54;;;;;;;26.20;11.60;;;23.40;54.70;;;;;;4423678;28;659058;-84
2021/04/01 10:59:44;;;;;;;24.23;10.83;;;23.80;54.90;;;;;;4400638;28;658844;-85
2021/04/01 11:02:35;;;;;;;25.10;11.20;;;24.10;53.10;;;;;;4400840;28;658830;-84
2021/04/01 11:05:24;;;;;;;28.83;10.43;;;24.10;51.70;;;;;;4396870;28;658430;-88
2021/04/01 11:08:12;;;;;;;28.57;11.13;;;23.90;51.10;;;;;;4410355;28;659239;-86
2021/04/01 11:11:01;;;;;;;19.53;9.70;;;24.00;51.70;;;;;;4391574;28;658844;-85
2021/04/01 11:13:49;;;;;;;25.10;12.73;;;23.90;51.70;;;;;;4378516;28;658349;-87
2021/04/01 11:16:38;;;;;;;27.93;13.33;;;24.00;52.70;;;;;;4418468;28;658230;-86
2021/04/01 11:19:25;;;;;;;26.70;12.17;;;24.10;52.00;;;;;;4387136;28;658847;-87
2021/04/01 11:22:13;;;;;;;26.00;12.83;;;24.10;50.50;;;;;;4390188;28;658955;-86
2021/04/01 11:25:12;;;;;;;34.10;12.87;;;23.90;52.10;;;;;;4403701;28;658932;-86
2021/04/01 11:28:00;;;;;;;33.87;12.37;;;23.30;51.30;;;;;;4381129;28;658658;-87
2021/04/01 11:30:51;;;;;;;29.23;12.13;;;23.10;51.00;;;;;;4417251;28;658743;-85
2021/04/01 11:33:39;;;;;;;33.03;12.70;;;22.90;51.30;;;;;;4384208;28;658914;-84
2021/04/01 11:36:30;;;;;;;28.27;13.97;;;22.90;51.40;;;;;;4406265;28;659210;-84
2021/04/01 11:39:34;;;;;;;29.13;13.63;;;22.90;54.30;;;;;;4408539;28;658870;-86
2021/04/01 11:42:22;;;;;;;35.00;15.07;;;23.00;52.70;;;;;;4383841;28;658953;-84
2021/04/01 11:45:10;;;;;;;35.67;14.97;;;23.00;52.20;;;;;;4377634;28;659105;-84
2021/04/01 11:48:00;;;;;;;31.37;14.63;;;22.80;52.50;;;;;;4352769;28;658863;-84
2021/04/01 11:50:48;;;;;;;32.03;14.20;;;22.90;52.10;;;;;;4390641;28;658462;-84
2021/04/01 11:53:37;;;;;;;29.37;14.20;;;22.90;52.40;;;;;;4414650;28;658868;-84
2021/04/01 11:56:34;;;;;;;25.17;12.20;;;22.70;52.00;;;;;;4387011;28;658347;-84
2021/04/01 11:59:26;;;;;;;33.17;12.90;;;22.80;52.70;;;;;;4373156;28;658813;-83
2021/04/01 12:02:14;;;;;;;38.43;14.50;;;23.10;52.40;;;;;;4387514;28;659320;-83
2021/04/01 12:05:04;;;;;;;37.57;15.60;;;23.20;51.40;;;;;;4415918;28;658611;-84
2021/04/01 12:07:52;;;;;;;31.47;12.57;;;22.90;50.90;;;;;;4418399;28;658871;-84
2021/04/01 12:10:40;;;;;;;30.73;13.57;;;22.90;51.30;;;;;;4423743;28;658949;-83
2021/04/01 12:13:29;;;;;;;31.23;14.87;;;22.90;50.60;;;;;;4408919;28;658681;-84
2021/04/01 12:16:21;;;;;;;35.13;14.50;;;22.80;51.40;;;;;;4409610;28;659715;-83
2021/04/01 12:19:09;;;;;;;28.37;14.33;;;22.70;51.80;;;;;;4382089;28;659112;-85
2021/04/01 12:21:58;;;;;;;30.10;14.07;;;22.60;51.70;;;;;;4404220;28;659009;-84
2021/04/01 12:24:46;;;;;;;31.70;13.67;;;22.50;50.80;;;;;;4401114;28;659249;-84
2021/04/01 12:27:33;;;;;;;25.40;13.63;;;22.40;51.50;;;;;;4405661;28;659097;-85
2021/04/01 12:30:27;;;;;;;29.70;13.87;;;22.50;50.70;;;;;;4438908;28;659127;-84
2021/04/01 12:33:16;;;;;;;27.10;13.33;;;22.20;50.80;;;;;;4396807;28;659444;-83
2021/04/01 12:36:06;;;;;;;28.67;13.53;;;22.30;51.60;;;;;;4427245;28;658687;-83
2021/04/01 12:38:55;;;;;;;24.80;12.50;;;22.30;51.00;;;;;;4389567;28;658706;-84
2021/04/01 12:41:45;;;;;;;27.97;14.03;;;22.30;51.10;;;;;;4398439;28;658431;-85
2021/04/01 12:44:37;;;;;;;26.57;12.17;;;22.20;50.50;;;;;;4430809;28;658439;-84
2021/04/01 12:47:24;;;;;;;22.07;10.83;;;21.80;50.80;;;;;;4427650;28;658575;-84
2021/04/01 12:50:13;;;;;;;31.20;13.53;;;21.70;50.90;;;;;;4439544;28;658733;-84
2021/04/01 12:53:00;;;;;;;30.80;13.77;;;21.50;51.00;;;;;;4425141;28;659816;-83
2021/04/01 12:55:51;;;;;;;36.40;15.23;;;21.50;51.00;;;;;;4391559;28;658757;-84
2021/04/01 12:58:42;;;;;;;30.60;14.20;;;21.50;51.10;;;;;;4416871;28;658539;-83
2021/04/01 13:01:33;;;;;;;29.17;13.53;;;21.40;50.80;;;;;;4399870;28;659547;-83
2021/04/01 13:04:23;;;;;;;30.10;13.57;;;21.40;51.10;;;;;;4407566;28;659104;-83
2021/04/01 13:07:21;;;;;;;33.63;14.70;;;21.50;50.90;;;;;;4424189;28;658671;-83
2021/04/01 13:10:31;;;;;;;32.17;13.37;;;21.60;50.40;;;;;;4404368;28;659082;-83
2021/04/01 13:13:20;;;;;;;26.63;12.30;;;21.50;50.90;;;;;;4381617;28;658665;-84
2021/04/01 13:16:08;;;;;;;23.17;10.60;;;21.50;49.50;;;;;;4402734;28;658581;-84
2021/04/01 13:18:56;;;;;;;25.97;11.83;;;21.60;47.90;;;;;;4430553;28;660234;-83
2021/04/01 13:21:54;;;;;;;25.03;11.83;;;21.50;47.70;;;;;;4391701;28;658701;-84
2021/04/01 13:25:04;;;;;;;26.93;13.00;;;21.60;48.60;;;;;;4404760;28;658642;-83
2021/04/01 13:27:52;;;;;;;29.47;12.87;;;21.40;49.60;;;;;;4409044;28;658579;-83
2021/04/01 13:30:42;;;;;;;26.23;13.30;;;21.60;49.20;;;;;;4395086;28;659939;-83
2021/04/01 13:33:44;;;;;;;29.57;13.77;;;21.60;49.40;;;;;;4394433;28;658467;-82
2021/04/01 13:36:34;;;;;;;27.07;11.67;;;21.60;49.20;;;;;;4419125;28;658471;-83
2021/04/01 13:39:24;;;;;;;23.97;12.53;;;21.70;48.20;;;;;;4432720;28;659118;-84
2021/04/01 13:42:15;;;;;;;27.63;12.33;;;21.70;48.40;;;;;;4417912;28;658508;-83
2021/04/01 13:45:08;;;;;;;26.73;11.90;;;21.80;48.10;;;;;;4434776;28;658838;-86
2021/04/01 13:47:59;;;;;;;28.20;12.97;;;21.90;48.80;;;;;;4411060;28;658987;-85
2021/04/01 13:50:50;;;;;;;30.43;12.67;;;22.00;47.80;;;;;;4416157;28;658965;-84
2021/04/01 13:53:49;;;;;;;25.07;12.47;;;22.00;48.80;;;;;;4395074;28;658520;-85
2021/04/01 13:56:40;;;;;;;33.03;13.03;;;22.10;48.00;;;;;;4404389;28;658561;-84
2021/04/01 13:59:29;;;;;;;25.60;13.20;;;22.20;49.10;;;;;;4419606;28;658752;-84
2021/04/01 14:09:00;;;;;;;30.33;14.90;;;21.90;48.60;;;;;;4324784;28;658669;-82
2021/04/01 14:11:47;;;;;;;29.57;13.80;;;21.60;48.50;;;;;;4314216;28;658682;-85
2021/04/01 14:14:36;;;;;;;24.17;13.20;;;21.50;48.70;;;;;;4340413;28;659540;-83
2021/04/01 14:17:23;;;;;;;24.53;12.67;;;21.50;49.20;;;;;;4323616;28;658611;-84
2021/04/01 14:20:12;;;;;;;22.13;11.40;;;21.60;49.20;;;;;;4339085;28;659473;-83
2021/04/01 14:23:00;;;;;;;24.30;11.50;;;21.70;49.10;;;;;;4329153;28;659609;-84
2021/04/01 14:25:48;;;;;;;28.83;11.97;;;21.80;48.60;;;;;;4323550;29;658597;-85
2021/04/01 14:28:36;;;;;;;27.53;13.63;;;21.80;48.20;;;;;;4339757;28;658895;-83
2021/04/01 14:31:23;;;;;;;25.07;12.83;;;21.60;47.90;;;;;;4310908;28;658810;-84
2021/04/01 14:34:10;;;;;;;33.57;13.93;;;21.60;49.40;;;;;;4354450;28;659014;-83
2021/04/01 14:36:58;;;;;;;26.17;12.93;;;21.60;48.70;;;;;;4324221;28;659060;-84
2021/04/01 14:39:47;;;;;;;26.23;13.03;;;21.50;48.80;;;;;;4329488;29;660165;-85
2021/04/01 14:42:36;;;;;;;35.10;14.13;;;21.40;48.80;;;;;;4320461;28;660213;-83
2021/04/01 14:45:23;;;;;;;30.03;14.50;;;21.40;49.40;;;;;;4338266;28;658878;-83
2021/04/01 14:48:11;;;;;;;28.67;14.47;;;21.30;50.00;;;;;;4377668;28;659685;-84
2021/04/01 14:50:58;;;;;;;29.87;14.73;;;21.20;50.30;;;;;;4413724;28;658646;-84
2021/04/01 14:53:48;;;;;;;27.73;13.87;;;21.00;50.30;;;;;;4431382;28;659125;-83
2021/04/01 14:56:37;;;;;;;27.20;13.60;;;20.80;50.30;;;;;;4390867;28;658883;-83
2021/04/01 14:59:27;;;;;;;30.13;14.10;;;20.60;50.10;;;;;;4395364;28;659034;-83
2021/04/01 15:02:15;;;;;;;27.63;13.60;;;20.60;50.90;;;;;;4404381;28;660628;-83